Time;durP1;ratioP1;P1;durP2;ratioP2;P2;SDS_P1;SDS_P2;PMS_P1;PMS_P2;Temp;Humidity;BMP_temperature;BMP_pressure;BME280_temperature;BME280_humidity;BME280_pressure;Samples;Min_cycle;Max_cycle;Signal;HPM_P1;HPM_P2
2021/12/06 00:01:07;;;;;;;46.92;27.40;;;;;;;0.35;100.00;100985.44;5049989;28;20077;-85
2021/12/06 00:04:02;;;;;;;46.38;29.23;;;;;;;0.39;100.00;100988.03;5051704;28;20450;-85
2021/12/06 00:06:29;;;;;;;50.97;29.20;;;;;;;0.49;100.00;100989.69;5030512;28;20045;-85
2021/12/06 00:08:55;;;;;;;48.53;29.13;;;;;;;0.57;100.00;100994.00;5051315;28;20071;-85
2021/12/06 00:11:20;;;;;;;52.65;30.83;;;;;;;0.59;100.00;100989.63;5033872;28;20033;-85
2021/12/06 00:13:49;;;;;;;51.85;29.65;;;;;;;0.68;100.00;101002.66;5050283;28;20036;-85
2021/12/06 00:16:19;;;;;;;52.50;30.25;;;;;;;0.73;100.00;100998.25;5017216;28;20064;-85
2021/12/06 00:18:47;;;;;;;52.83;31.30;;;;;;;0.70;100.00;100990.41;5040378;28;20022;-85
2021/12/06 00:21:12;;;;;;;53.10;30.27;;;;;;;0.79;100.00;101006.03;5031227;28;20429;-85
2021/12/06 00:23:38;;;;;;;50.97;30.40;;;;;;;0.86;100.00;101005.13;5033904;28;20094;-85
2021/12/06 00:26:05;;;;;;;55.58;31.27;;;;;;;0.90;100.00;101013.84;5035486;28;20033;-84
2021/12/06 00:28:31;;;;;;;51.22;30.85;;;;;;;0.91;100.00;101011.19;5031817;28;20104;-84
2021/12/06 00:30:57;;;;;;;52.20;30.73;;;;;;;0.97;100.00;101012.91;5037262;28;20147;-84
2021/12/06 00:33:24;;;;;;;48.95;30.58;;;;;;;1.00;100.00;101023.34;5032268;28;20103;-84
2021/12/06 00:35:50;;;;;;;50.42;29.45;;;;;;;0.98;100.00;101014.63;5044000;28;20041;-85
2021/12/06 00:38:16;;;;;;;50.08;29.50;;;;;;;1.02;100.00;101016.34;5044883;28;20059;-85
2021/12/06 00:40:47;;;;;;;48.88;29.48;;;;;;;1.04;100.00;101026.81;5034334;28;20033;-85
2021/12/06 00:43:13;;;;;;;46.83;28.17;;;;;;;1.06;100.00;101035.53;5034700;28;20033;-85
2021/12/06 00:45:39;;;;;;;49.13;30.30;;;;;;;1.09;100.00;101030.28;5033826;28;20033;-85
2021/12/06 00:48:05;;;;;;;50.67;30.20;;;;;;;1.08;100.00;101025.91;5046335;28;20039;-84
2021/12/06 00:50:35;;;;;;;49.95;29.60;;;;;;;1.16;100.00;101042.44;5050985;28;20031;-84
2021/12/06 00:53:01;;;;;;;51.63;30.98;;;;;;;1.17;100.00;101045.06;5035623;28;20110;-84
2021/12/06 00:55:26;;;;;;;51.30;30.10;;;;;;;1.14;100.00;101036.34;5033147;28;20363;-84
2021/12/06 00:57:53;;;;;;;51.15;29.95;;;;;;;1.18;100.00;101040.69;5031213;28;20048;-84
2021/12/06 01:00:35;;;;;;;61.38;34.10;;;;;;;1.22;100.00;101043.25;5042759;28;20029;-84
2021/12/06 01:03:04;;;;;;;58.40;33.00;;;;;;;1.27;100.00;101058.94;5038813;28;20374;-84
2021/12/06 01:05:29;;;;;;;59.53;33.70;;;;;;;1.28;100.00;101055.44;5043847;28;20013;-85
2021/12/06 01:07:55;;;;;;;55.45;31.52;;;;;;;1.29;100.00;101057.16;5050445;28;20029;-85
2021/12/06 01:10:25;;;;;;;53.55;32.63;;;;;;;1.27;100.00;101065.94;5037863;28;20063;-84
2021/12/06 01:12:51;;;;;;;53.95;32.05;;;;;;;1.28;100.00;101063.28;5050545;28;20033;-84
2021/12/06 01:15:17;;;;;;;52.22;32.00;;;;;;;1.34;100.00;101079.00;5047484;28;20040;-85
2021/12/06 01:17:43;;;;;;;53.22;31.52;;;;;;;1.32;100.00;101077.25;5050957;28;20036;-84
2021/12/06 01:20:12;;;;;;;49.65;30.55;;;;;;;1.34;100.00;101085.97;5049138;28;20025;-84
2021/12/06 01:23:01;;;;;;;51.58;30.65;;;;;;;1.33;100.00;101082.47;5036868;28;20139;-85
2021/12/06 01:26:28;;;;;;;48.65;28.55;;;;;;;1.32;100.00;101080.75;5032256;28;20030;-84
2021/12/06 01:41:21;;;;;;;58.13;33.13;;;;;;;1.31;100.00;101100.00;5050743;28;20043;-85
2021/12/06 01:44:10;;;;;;;54.75;33.17;;;;;;;1.34;100.00;101102.59;5043765;28;20385;-86
2021/12/06 01:46:41;;;;;;;54.90;33.38;;;;;;;1.29;100.00;101093.00;5041892;28;20406;-84
2021/12/06 01:49:07;;;;;;;58.83;33.33;;;;;;;1.35;100.00;101106.94;5043111;28;20108;-85
2021/12/06 01:51:33;;;;;;;60.85;33.85;;;;;;;1.33;100.00;101113.94;5040534;28;20025;-85
2021/12/06 01:54:00;;;;;;;59.60;34.03;;;;;;;1.37;100.00;101113.03;5045208;28;20029;-85
2021/12/06 01:56:26;;;;;;;54.45;32.75;;;;;;;1.37;100.00;101125.28;5029758;28;20121;-85
2021/12/06 01:58:51;;;;;;;61.05;34.75;;;;;;;1.35;100.00;101112.19;5034023;28;20441;-85
2021/12/06 02:01:16;;;;;;;62.90;35.65;;;;;;;1.38;100.00;101117.41;5049113;28;20514;-85
2021/12/06 02:03:42;;;;;;;65.35;36.03;;;;;;;1.35;100.00;101112.19;5048480;28;20029;-85
2021/12/06 02:06:08;;;;;;;60.78;35.42;;;;;;;1.41;100.00;101121.75;5038647;28;20109;-86
2021/12/06 02:08:33;;;;;;;58.83;33.85;;;;;;;1.41;100.00;101116.50;5011745;28;20040;-85
2021/12/06 02:11:02;;;;;;;59.30;34.38;;;;;;;1.41;100.00;101119.13;5031251;28;20060;-84
2021/12/06 02:13:32;;;;;;;62.15;34.83;;;;;;;1.39;100.00;101116.53;5032937;28;20466;-84
2021/12/06 02:15:57;;;;;;;57.55;34.58;;;;;;;1.40;100.00;101123.50;5053701;28;20029;-86
2021/12/06 02:21:03;;;;;;;56.15;32.75;;;;;;;1.39;100.00;101116.53;5049532;28;20421;-85
2021/12/06 02:23:30;;;;;;;59.65;33.50;;;;;;;1.40;100.00;101118.25;5047042;28;20037;-85
2021/12/06 02:25:56;;;;;;;55.72;32.05;;;;;;;1.38;100.00;101121.75;5048742;28;20029;-85
2021/12/06 02:28:21;;;;;;;61.55;35.50;;;;;;;1.36;100.00;101124.41;5046359;28;20039;-85
2021/12/06 02:30:47;;;;;;;58.88;33.10;;;;;;;1.40;100.00;101122.63;5046467;28;20100;-84
2021/12/06 02:33:13;;;;;;;58.13;34.45;;;;;;;1.32;100.00;101120.06;5015740;28;20041;-84
2021/12/06 02:35:38;;;;;;;58.65;35.10;;;;;;;1.32;100.00;101127.94;5037304;28;20054;-84
2021/12/06 02:38:07;;;;;;;55.33;32.72;;;;;;;1.31;100.00;101130.59;5029031;28;20033;-85
2021/12/06 02:40:35;;;;;;;57.28;33.28;;;;;;;1.31;100.00;101133.22;5030402;28;20022;-85
2021/12/06 02:43:05;;;;;;;63.55;34.30;;;;;;;1.31;100.00;101130.59;5028290;28;20037;-85
2021/12/06 02:45:31;;;;;;;58.15;34.08;;;;;;;1.32;100.00;101138.44;5042054;28;20033;-85
2021/12/06 02:48:01;;;;;;;56.08;33.65;;;;;;;1.30;100.00;101148.06;5047607;28;20142;-85
2021/12/06 02:50:31;;;;;;;59.30;33.83;;;;;;;1.30;100.00;101155.94;5042269;28;20110;-86
2021/12/06 02:52:57;;;;;;;59.17;32.90;;;;;;;1.34;100.00;101157.66;5035044;28;20031;-84
2021/12/06 02:57:56;;;;;;;64.57;36.20;;;;;;;1.27;100.00;101155.97;5048757;28;20041;-84
2021/12/06 03:00:22;;;;;;;58.60;35.33;;;;;;;1.32;100.00;101162.03;5045797;28;20405;-85
2021/12/06 03:02:47;;;;;;;63.83;35.22;;;;;;;1.33;100.00;101155.91;5032844;28;20045;-85
2021/12/06 03:05:13;;;;;;;60.42;34.47;;;;;;;1.33;100.00;101161.16;5047419;28;20390;-85
2021/12/06 03:07:39;;;;;;;61.38;34.72;;;;;;;1.35;100.00;101164.63;5032818;28;20104;-85
2021/12/06 03:10:07;;;;;;;60.45;34.90;;;;;;;1.35;100.00;101162.03;5028380;28;20027;-85
2021/12/06 03:12:33;;;;;;;65.57;35.13;;;;;;;1.34;100.00;101162.91;5032713;28;20371;-85
2021/12/06 03:15:00;;;;;;;59.90;32.55;;;;;;;1.34;100.00;101156.75;5032341;28;20028;-85
2021/12/06 03:17:28;;;;;;;59.30;35.00;;;;;;;1.34;100.00;101165.53;5031866;28;20064;-85
2021/12/06 03:19:54;;;;;;;54.92;31.35;;;;;;;1.32;100.00;101162.03;5028153;28;20030;-84
2021/12/06 03:22:20;;;;;;;53.90;32.45;;;;;;;1.29;100.00;101162.06;5028210;28;20075;-84
2021/12/06 03:24:46;;;;;;;56.25;32.58;;;;;;;1.30;100.00;101160.31;5043367;28;20024;-85
2021/12/06 03:27:13;;;;;;;59.42;34.78;;;;;;;1.33;100.00;101168.16;5038029;28;20037;-85
2021/12/06 03:29:38;;;;;;;59.90;35.40;;;;;;;1.33;100.00;101174.25;5028461;28;20413;-85
2021/12/06 03:32:04;;;;;;;64.70;34.90;;;;;;;1.35;100.00;101169.03;5042006;28;20018;-85
2021/12/06 03:34:30;;;;;;;61.33;33.97;;;;;;;1.35;100.00;101177.75;5035007;28;20040;-85
2021/12/06 03:36:58;;;;;;;63.08;35.05;;;;;;;1.36;100.00;101174.25;5031718;28;20457;-85
2021/12/06 03:39:27;;;;;;;57.35;33.55;;;;;;;1.33;100.00;101170.78;5027972;28;20452;-85
2021/12/06 03:41:56;;;;;;;57.40;33.15;;;;;;;1.34;100.00;101178.66;5009850;28;20025;-85
2021/12/06 03:44:23;;;;;;;59.88;34.05;;;;;;;1.29;100.00;101169.06;5028970;28;20486;-85
2021/12/06 03:46:52;;;;;;;61.33;34.70;;;;;;;1.34;100.00;101181.25;5043639;28;20021;-85
2021/12/06 03:49:17;;;;;;;66.50;35.28;;;;;;;1.34;100.00;101178.66;5047433;28;20088;-85
2021/12/06 03:51:45;;;;;;;60.05;34.75;;;;;;;1.35;100.00;101182.13;5010638;28;20516;-85
2021/12/06 03:54:16;;;;;;;57.13;34.47;;;;;;;1.36;100.00;101183.88;5029667;28;20030;-86
2021/12/06 03:56:42;;;;;;;66.13;35.55;;;;;;;1.30;100.00;101179.56;5043222;28;20025;-83
2021/12/06 03:59:08;;;;;;;67.00;37.13;;;;;;;1.32;100.00;101188.25;5022577;28;20521;-84
2021/12/06 04:01:33;;;;;;;65.00;35.97;;;;;;;1.36;100.00;101189.97;5030338;28;20048;-84
2021/12/06 04:04:01;;;;;;;67.97;37.53;;;;;;;1.39;100.00;101196.97;5037767;28;20099;-85
2021/12/06 04:06:27;;;;;;;58.65;33.88;;;;;;;1.32;100.00;101190.88;5046021;28;20523;-85
2021/12/06 04:08:52;;;;;;;61.28;34.28;;;;;;;1.32;100.00;101184.78;5047707;28;20104;-85
2021/12/06 04:11:17;;;;;;;55.88;32.88;;;;;;;1.25;100.00;101178.69;5047326;28;20415;-84
2021/12/06 04:13:43;;;;;;;59.38;34.20;;;;;;;1.26;100.00;101188.31;5046157;28;20606;-85
2021/12/06 04:16:08;;;;;;;59.28;33.47;;;;;;;1.17;100.00;101181.38;5046567;28;20024;-85
2021/12/06 04:18:33;;;;;;;56.22;32.88;;;;;;;1.19;100.00;101186.63;5048315;28;20024;-85
2021/12/06 04:20:59;;;;;;;55.47;32.40;;;;;;;1.14;100.00;101193.66;5046219;28;20028;-86
2021/12/06 04:23:25;;;;;;;60.47;33.88;;;;;;;1.10;100.00;101199.78;5040451;28;20038;-85
2021/12/06 04:25:50;;;;;;;57.28;31.85;;;;;;;1.06;100.00;101198.06;5036433;28;20033;-85
2021/12/06 04:28:18;;;;;;;58.03;32.03;;;;;;;0.99;100.00;101198.09;5047684;28;20112;-85
2021/12/06 04:30:44;;;;;;;54.65;31.88;;;;;;;0.88;100.00;101193.78;5048059;28;20025;-85
2021/12/06 04:33:09;;;;;;;55.15;32.13;;;;;;;0.82;100.00;101196.44;5033763;28;20040;-84
2021/12/06 04:35:37;;;;;;;58.70;32.40;;;;;;;0.72;100.00;101198.25;5034938;28;20037;-85
2021/12/06 04:38:04;;;;;;;51.13;30.48;;;;;;;0.56;100.00;101197.44;5035820;28;20032;-85
2021/12/06 04:40:29;;;;;;;49.72;28.55;;;;;;;0.44;100.00;101190.50;5051129;28;20029;-85
2021/12/06 04:42:56;;;;;;;59.50;32.08;;;;;;;0.39;100.00;101197.50;5049044;28;20152;-85
2021/12/06 04:45:21;;;;;;;55.05;30.30;;;;;;;0.30;100.00;101199.28;5040036;28;20033;-85
2021/12/06 04:47:47;;;;;;;52.35;30.75;;;;;;;0.17;100.00;101195.84;5049012;28;20033;-85
2021/12/06 04:50:14;;;;;;;54.65;30.50;;;;;;;0.10;100.00;101196.72;5049997;28;20025;-85
2021/12/06 04:52:40;;;;;;;53.83;30.05;;;;;;;0.04;100.00;101197.59;5047719;28;20021;-85
2021/12/06 04:55:14;;;;;;;53.20;31.58;;;;;;;0.02;100.00;101214.19;5045215;28;20036;-85
2021/12/06 04:57:43;;;;;;;58.47;32.10;;;;;;;-0.05;100.00;101205.47;5050451;28;20112;-85
2021/12/06 05:00:29;;;;;;;54.92;29.92;;;;;;;-0.06;100.00;101206.34;5029211;28;20033;-84
2021/12/06 05:02:55;;;;;;;50.05;30.02;;;;;;;-0.21;100.00;101196.75;5035627;28;20029;-83
2021/12/06 05:05:44;;;;;;;104.88;29.75;;;;;;;-0.26;100.00;101202.00;5031391;28;20017;-85
2021/12/06 05:08:17;;;;;;;58.13;29.33;;;;;;;-0.28;100.00;101211.59;5038930;28;20021;-85
2021/12/06 05:10:42;;;;;;;53.65;28.88;;;;;;;-0.27;100.00;101228.16;5043123;28;20061;-84
2021/12/06 05:13:08;;;;;;;54.33;30.30;;;;;;;-0.30;100.00;101223.78;5042313;28;20064;-85
2021/12/06 05:15:34;;;;;;;54.20;29.88;;;;;;;-0.36;100.00;101215.97;5031338;28;20387;-84
2021/12/06 05:17:59;;;;;;;52.65;30.42;;;;;;;-0.42;100.00;101217.69;5043102;28;20028;-85
2021/12/06 05:20:25;;;;;;;54.97;31.45;;;;;;;-0.41;100.00;101228.19;5037315;28;20337;-85
2021/12/06 05:22:50;;;;;;;54.42;30.80;;;;;;;-0.48;100.00;101222.94;5044450;28;20060;-85
2021/12/06 05:25:16;;;;;;;52.05;30.30;;;;;;;-0.53;100.00;101226.41;5043152;28;20029;-85
2021/12/06 05:27:43;;;;;;;54.97;30.42;;;;;;;-0.53;100.00;101241.25;5042938;28;20544;-85
2021/12/06 05:30:11;;;;;;;58.95;31.58;;;;;;;-0.55;100.00;101241.22;5034096;28;20029;-85
2021/12/06 05:32:36;;;;;;;56.13;31.33;;;;;;;-0.63;100.00;101235.09;5034897;28;20032;-85
2021/12/06 05:35:07;;;;;;;50.33;29.05;;;;;;;-0.65;100.00;101246.44;5049789;28;20032;-86
2021/12/06 05:37:35;;;;;;;82.18;30.50;;;;;;;-0.76;100.00;101243.81;5032450;28;20044;-85
2021/12/06 05:40:02;;;;;;;50.33;29.58;;;;;;;-0.72;100.00;101248.16;5031026;28;20143;-84
2021/12/06 05:42:28;;;;;;;57.63;29.67;;;;;;;-0.79;100.00;101242.06;5041944;28;20041;-84
2021/12/06 05:44:54;;;;;;;51.58;29.33;;;;;;;-0.81;100.00;101233.34;5050243;28;20025;-83
2021/12/06 05:47:19;;;;;;;48.25;28.70;;;;;;;-0.82;100.00;101236.84;5049596;28;20029;-84
2021/12/06 05:49:44;;;;;;;50.83;28.42;;;;;;;-0.85;100.00;101233.34;5049716;28;20028;-84
2021/12/06 05:52:10;;;;;;;54.67;31.20;;;;;;;-0.89;100.00;101231.59;5047338;28;20079;-84
2021/12/06 05:54:36;;;;;;;58.53;31.33;;;;;;;-0.91;100.00;101230.72;5049878;28;20033;-85
2021/12/06 05:57:03;;;;;;;55.90;31.42;;;;;;;-0.92;100.00;101229.84;5038042;28;20036;-84
2021/12/06 05:59:29;;;;;;;57.90;31.50;;;;;;;-0.94;100.00;101239.41;5036382;28;20141;-84
2021/12/06 06:01:54;;;;;;;55.60;31.00;;;;;;;-0.94;100.00;101244.66;5037135;28;20050;-85
2021/12/06 06:04:21;;;;;;;60.35;31.90;;;;;;;-0.98;100.00;101242.88;5037937;28;20025;-84
2021/12/06 06:06:47;;;;;;;64.97;33.28;;;;;;;-1.00;100.00;101247.25;5049528;28;20116;-85
2021/12/06 06:09:12;;;;;;;60.67;34.05;;;;;;;-0.97;100.00;101251.59;5038206;28;20104;-84
2021/12/06 06:11:37;;;;;;;66.18;35.13;;;;;;;-0.96;100.00;101251.63;5040945;28;20551;-84
2021/12/06 06:14:05;;;;;;;72.82;37.72;;;;;;;-0.81;100.00;101266.44;5048177;28;20037;-84
2021/12/06 06:16:36;;;;;;;94.75;41.28;;;;;;;-0.71;100.00;101265.63;5044205;28;20033;-84
2021/12/06 06:19:03;;;;;;;129.32;42.10;;;;;;;-0.62;100.00;101263.03;5037598;28;20063;-84
2021/12/06 06:21:29;;;;;;;92.80;39.78;;;;;;;-0.46;100.00;101281.31;5034676;28;20040;-84
2021/12/06 06:23:55;;;;;;;122.20;41.15;;;;;;;-0.37;100.00;101273.50;5041725;28;20087;-84
2021/12/06 06:26:21;;;;;;;137.20;41.47;;;;;;;-0.31;100.00;101281.34;5030661;28;20377;-82
2021/12/06 06:28:46;;;;;;;121.10;40.22;;;;;;;-0.29;100.00;101271.78;5027879;28;20490;-82
2021/12/06 06:31:11;;;;;;;123.63;40.28;;;;;;;-0.23;100.00;101282.22;5030055;28;20034;-83
2021/12/06 06:33:37;;;;;;;121.72;37.00;;;;;;;-0.22;100.00;101272.63;5046909;28;20498;-83
2021/12/06 06:36:02;;;;;;;98.35;38.00;;;;;;;-0.21;100.00;101275.22;5045064;28;20210;-86
2021/12/06 06:38:28;;;;;;;94.90;34.90;;;;;;;-0.20;100.00;101287.47;5045308;28;20047;-83
2021/12/06 06:40:53;;;;;;;85.10;35.67;;;;;;;-0.20;100.00;101292.69;5042641;28;20027;-85
2021/12/06 06:43:18;;;;;;;120.75;34.78;;;;;;;-0.18;100.00;101290.06;5034611;28;20032;-84
2021/12/06 06:45:44;;;;;;;105.25;33.97;;;;;;;-0.17;100.00;101282.22;5042296;28;20032;-85
2021/12/06 06:48:10;;;;;;;100.90;36.33;;;;;;;-0.16;100.00;101286.59;5028379;28;20036;-84
2021/12/06 06:50:35;;;;;;;115.10;38.05;;;;;;;-0.16;100.00;101278.75;5017477;28;20040;-84
2021/12/06 06:53:01;;;;;;;111.20;38.40;;;;;;;-0.16;100.00;101278.75;5041326;28;20470;-84
2021/12/06 06:55:27;;;;;;;121.63;38.92;;;;;;;-0.20;100.00;101271.78;5029246;28;20024;-85
2021/12/06 06:57:52;;;;;;;194.57;39.90;;;;;;;-0.17;100.00;101274.38;5033940;28;20386;-85
2021/12/06 07:00:21;;;;;;;86.25;33.67;;;;;;;-0.09;100.00;101282.22;5041073;28;20033;-84
2021/12/06 07:02:47;;;;;;;86.85;35.80;;;;;;;-0.06;100.00;101285.72;5022721;28;20036;-84
2021/12/06 07:05:12;;;;;;;99.38;35.63;;;;;;;-0.03;100.00;101292.69;5031059;28;20134;-84
2021/12/06 07:07:38;;;;;;;160.52;38.95;;;;;;;-0.01;100.00;101296.16;5048527;28;20021;-84
2021/12/06 07:10:05;;;;;;;88.70;35.20;;;;;;;0.02;100.00;101296.19;5036423;28;20025;-85
2021/12/06 07:12:31;;;;;;;84.15;37.25;;;;;;;0.05;100.00;101290.09;5029978;28;20034;-85
2021/12/06 07:14:56;;;;;;;104.72;36.28;;;;;;;0.08;100.00;101292.69;5028607;28;20359;-84
2021/12/06 07:17:22;;;;;;;69.32;34.30;;;;;;;0.09;100.00;101292.69;5028386;28;20021;-84
2021/12/06 07:19:47;;;;;;;87.22;36.00;;;;;;;0.14;100.00;101295.31;5011359;28;20029;-85
2021/12/06 07:22:13;;;;;;;76.43;35.30;;;;;;;0.15;100.00;101292.69;5030197;28;20025;-83
2021/12/06 07:24:39;;;;;;;81.28;34.45;;;;;;;0.18;100.00;101303.16;5046234;28;20056;-84
2021/12/06 07:27:05;;;;;;;84.68;35.55;;;;;;;0.19;100.00;101306.63;5047668;28;20025;-84
2021/12/06 07:29:33;;;;;;;76.18;33.97;;;;;;;0.17;100.00;101290.94;5044346;28;20028;-84
2021/12/06 07:31:59;;;;;;;96.47;34.33;;;;;;;0.25;100.00;101306.63;5031055;28;20017;-84
2021/12/06 07:34:24;;;;;;;82.80;35.78;;;;;;;0.27;100.00;101309.25;5047056;28;20116;-84
2021/12/06 07:36:49;;;;;;;92.65;36.85;;;;;;;0.29;100.00;101305.75;5046414;28;20139;-84
2021/12/06 07:39:15;;;;;;;73.03;34.83;;;;;;;0.30;100.00;101304.88;5034630;28;20094;-84
2021/12/06 07:41:40;;;;;;;87.25;36.17;;;;;;;0.34;100.00;101317.09;5043225;28;20115;-83
2021/12/06 07:44:05;;;;;;;71.18;35.20;;;;;;;0.37;100.00;101314.47;5033717;28;20464;-83
2021/12/06 07:46:31;;;;;;;79.03;36.92;;;;;;;0.41;100.00;101318.81;5035787;28;20624;-83
2021/12/06 07:48:57;;;;;;;71.93;36.53;;;;;;;0.45;100.00;101322.31;5049275;28;20017;-91
2021/12/06 07:51:25;;;;;;;71.45;36.17;;;;;;;0.44;100.00;101308.34;5043868;28;20050;-88
2021/12/06 07:53:51;;;;;;;73.13;36.35;;;;;;;0.53;100.00;101317.94;5028270;28;20104;-86
2021/12/06 07:56:18;;;;;;;72.28;37.17;;;;;;;0.56;100.00;101314.44;5037058;28;20481;-91
2021/12/06 07:58:43;;;;;;;73.32;37.67;;;;;;;0.53;100.00;101306.59;5049293;28;20056;-89
2021/12/06 08:01:10;;;;;;;66.88;35.22;;;;;;;0.59;100.00;101311.81;5042668;28;20235;-89
2021/12/06 08:03:37;;;;;;;71.82;35.92;;;;;;;0.58;100.00;101294.34;5034438;28;20032;-89
2021/12/06 08:06:03;;;;;;;73.63;36.95;;;;;;;0.59;100.00;101296.09;5041549;28;20516;-89
2021/12/06 08:08:30;;;;;;;80.00;38.53;;;;;;;0.60;100.00;101301.34;5044969;28;20025;-90
2021/12/06 08:10:59;;;;;;;79.03;37.85;;;;;;;0.59;100.00;101298.72;5044437;28;20496;-87
2021/12/06 08:13:28;;;;;;;88.38;39.35;;;;;;;0.64;100.00;101303.06;5051538;28;20029;-88
2021/12/06 08:15:55;;;;;;;91.78;41.20;;;;;;;0.63;100.00;101296.09;5051046;28;20043;-88
2021/12/06 08:18:22;;;;;;;103.85;43.45;;;;;;;0.67;100.00;101297.84;5051331;28;20345;-87
2021/12/06 08:20:48;;;;;;;108.47;44.42;;;;;;;0.67;100.00;101294.31;5019985;28;20033;-88
2021/12/06 08:23:14;;;;;;;112.10;43.25;;;;;;;0.71;100.00;101306.53;5037578;28;20175;-87
2021/12/06 08:25:40;;;;;;;106.90;41.53;;;;;;;0.72;100.00;101297.81;5037235;28;20060;-88
2021/12/06 08:28:06;;;;;;;114.70;44.50;;;;;;;0.71;100.00;101288.19;5043971;28;20028;-88
2021/12/06 08:30:32;;;;;;;123.60;45.83;;;;;;;0.75;100.00;101305.63;5049462;28;20406;-88
2021/12/06 08:33:01;;;;;;;119.65;44.80;;;;;;;0.77;100.00;101301.28;5051671;28;20509;-87
2021/12/06 08:35:27;;;;;;;136.48;45.38;;;;;;;0.80;100.00;101295.16;5033499;28;20085;-87
2021/12/06 08:37:54;;;;;;;130.73;47.70;;;;;;;0.84;100.00;101294.28;5033777;28;20287;-87
2021/12/06 08:40:20;;;;;;;162.60;49.17;;;;;;;0.87;100.00;101307.34;5049549;28;20036;-89
2021/12/06 08:42:46;;;;;;;141.18;48.35;;;;;;;0.86;100.00;101300.38;5038425;28;20037;-88
2021/12/06 08:45:12;;;;;;;153.85;47.47;;;;;;;0.86;100.00;101297.75;5037022;28;20030;-87
2021/12/06 08:47:39;;;;;;;146.32;46.55;;;;;;;0.88;100.00;101322.19;5045645;28;20025;-88
2021/12/06 08:50:08;;;;;;;163.77;48.10;;;;;;;0.92;100.00;101329.16;5041034;28;20025;-86
2021/12/06 08:52:33;;;;;;;132.13;45.35;;;;;;;0.93;100.00;101334.44;5039629;28;20025;-87
2021/12/06 08:54:59;;;;;;;153.88;46.30;;;;;;;0.93;100.00;101336.19;5043775;28;20067;-88
2021/12/06 08:57:24;;;;;;;156.70;45.88;;;;;;;0.96;100.00;101344.00;5019664;28;20029;-90
2021/12/06 08:59:49;;;;;;;140.45;44.25;;;;;;;0.96;100.00;101351.88;5037133;28;20021;-88
2021/12/06 09:02:15;;;;;;;120.88;42.80;;;;;;;0.94;100.00;101346.66;5045633;28;20025;-84
2021/12/06 09:04:41;;;;;;;131.50;45.58;;;;;;;0.91;100.00;101325.69;5044246;28;20394;-88
2021/12/06 09:07:12;;;;;;;138.18;45.80;;;;;;;0.99;100.00;101339.63;5034537;28;20159;-89
2021/12/06 09:09:45;;;;;;;111.35;43.95;;;;;;;1.06;100.00;101337.88;5045252;28;20055;-86
2021/12/06 09:12:12;;;;;;;116.63;45.25;;;;;;;1.08;100.00;101333.47;5035845;28;20030;-88
2021/12/06 09:14:39;;;;;;;128.70;44.13;;;;;;;1.11;100.00;101338.72;5031669;28;20482;-90
2021/12/06 09:17:04;;;;;;;116.30;41.65;;;;;;;1.14;100.00;101349.19;5032267;28;20052;-88
2021/12/06 09:19:29;;;;;;;112.78;42.78;;;;;;;1.16;100.00;101346.56;5032215;28;20064;-90
2021/12/06 09:21:54;;;;;;;147.52;44.42;;;;;;;1.17;100.00;101346.56;5039334;28;20042;-89
2021/12/06 09:24:20;;;;;;;107.20;42.95;;;;;;;1.19;100.00;101342.19;5038727;28;20033;-87
2021/12/06 09:26:47;;;;;;;93.18;40.28;;;;;;;1.26;100.00;101344.78;5053473;28;20025;-88
2021/12/06 09:29:12;;;;;;;96.32;38.25;;;;;;;1.22;100.00;101336.06;5051872;28;20374;-87
2021/12/06 09:31:38;;;;;;;94.88;38.95;;;;;;;1.29;100.00;101343.00;5040486;28;20025;-88
2021/12/06 09:34:04;;;;;;;99.03;39.72;;;;;;;1.32;100.00;101347.38;5042826;28;20029;-88
2021/12/06 09:36:29;;;;;;;97.78;39.78;;;;;;;1.30;100.00;101344.75;5045727;28;20041;-88
2021/12/06 09:38:56;;;;;;;95.32;40.28;;;;;;;1.31;100.00;101343.00;5032756;28;20045;-89
2021/12/06 09:41:26;;;;;;;88.60;38.95;;;;;;;1.34;100.00;101336.00;5047936;28;20085;-87
2021/12/06 09:43:55;;;;;;;85.78;36.63;;;;;;;1.34;100.00;101336.00;5032485;28;20078;-87
2021/12/06 09:46:21;;;;;;;82.25;35.72;;;;;;;1.39;100.00;101343.84;5043088;28;20475;-90
2021/12/06 09:48:47;;;;;;;88.55;37.53;;;;;;;1.38;100.00;101342.97;5035471;28;20216;-88
2021/12/06 09:51:21;;;;;;;86.70;36.75;;;;;;;1.42;100.00;101339.47;5039609;28;20028;-89
2021/12/06 09:53:48;;;;;;;;;;;;;;;1.52;100.00;101342.03;5036961;28;20029;-91
2021/12/06 09:56:23;;;;;;;78.63;35.30;;;;;;;1.44;100.00;101342.06;5049865;28;19920;-88
2021/12/06 09:58:49;;;;;;;82.82;34.35;;;;;;;1.42;100.00;101346.44;5040627;28;20040;-88
2021/12/06 10:01:27;;;;;;;74.88;33.63;;;;;;;1.44;100.00;101353.44;5034180;28;20036;-88
2021/12/06 10:03:55;;;;;;;70.13;30.98;;;;;;;1.37;100.00;101341.22;5015940;28;20025;-88
2021/12/06 10:06:22;;;;;;;72.18;33.08;;;;;;;1.36;100.00;101349.09;5049506;28;20386;-89
2021/12/06 10:08:50;;;;;;;76.43;33.08;;;;;;;1.34;100.00;101349.13;5049749;28;20100;-89
2021/12/06 10:11:18;;;;;;;75.18;32.03;;;;;;;1.32;100.00;101350.00;5042689;28;20037;-89
2021/12/06 10:13:44;;;;;;;77.05;33.47;;;;;;;1.25;100.00;101338.66;5048917;28;20021;-87
2021/12/06 10:16:10;;;;;;;82.03;33.85;;;;;;;1.30;100.00;101341.28;5043598;28;20120;-87
2021/12/06 10:18:36;;;;;;;87.78;34.17;;;;;;;1.32;100.00;101335.13;5039522;28;20022;-87
2021/12/06 10:21:03;;;;;;;86.70;32.95;;;;;;;1.22;100.00;101307.22;5030924;28;20040;-88
2021/12/06 10:23:29;;;;;;;77.97;29.48;;;;;;;1.37;100.00;101328.09;5045745;28;20028;-87
2021/12/06 10:25:56;;;;;;;72.53;27.60;;;;;;;1.40;100.00;101325.47;5048948;28;20036;-88
2021/12/06 10:28:27;;;;;;;80.72;27.75;;;;;;;1.43;100.00;101319.34;5048356;28;20033;-87
2021/12/06 10:30:56;;;;;;;79.72;29.73;;;;;;;1.40;100.00;101309.72;5037759;28;20120;-87
2021/12/06 10:33:26;;;;;;;72.68;27.65;;;;;;;1.43;100.00;101312.34;5028998;28;20517;-89
2021/12/06 10:35:58;;;;;;;68.65;26.10;;;;;;;1.43;100.00;101303.59;5048309;28;20509;-88
2021/12/06 10:38:27;;;;;;;60.22;25.75;;;;;;;1.41;100.00;101298.34;5049103;28;20041;-87
2021/12/06 10:41:11;;;;;;;66.47;26.60;;;;;;;1.43;100.00;101293.13;5042426;28;20036;-88
2021/12/06 10:43:38;;;;;;;62.85;24.40;;;;;;;1.45;100.00;101299.22;5044194;28;20538;-88
2021/12/06 10:46:06;;;;;;;60.28;24.05;;;;;;;1.44;100.00;101300.97;5045131;28;20504;-87
2021/12/06 10:48:37;;;;;;;61.63;25.17;;;;;;;1.45;100.00;101299.22;5029603;28;20029;-88
2021/12/06 10:51:10;;;;;;;55.80;24.60;;;;;;;1.43;100.00;101286.09;5042874;28;20086;-89
2021/12/06 10:53:41;;;;;;;54.13;25.05;;;;;;;1.39;100.00;101283.53;5048842;28;20024;-88
2021/12/06 10:56:19;;;;;;;52.13;25.33;;;;;;;1.40;100.00;101270.38;5047875;28;20083;-88
2021/12/06 10:58:46;;;;;;;51.75;23.63;;;;;;;1.49;100.00;101272.94;5050376;28;20070;-89
2021/12/06 11:01:15;;;;;;;50.08;23.95;;;;;;;1.50;100.00;101271.19;5033116;28;20033;-88
2021/12/06 11:03:47;;;;;;;48.58;23.98;;;;;;;1.43;100.00;101269.50;5046457;28;20025;-89
2021/12/06 11:06:18;;;;;;;52.83;25.08;;;;;;;1.40;100.00;101256.41;5038795;28;20079;-88
2021/12/06 11:08:45;;;;;;;53.47;25.20;;;;;;;1.39;100.00;101242.41;5043282;28;20094;-88
2021/12/06 11:11:14;;;;;;;53.58;25.88;;;;;;;1.47;100.00;101238.00;5033598;28;20036;-87
2021/12/06 11:13:46;;;;;;;53.42;25.40;;;;;;;1.49;100.00;101238.84;5041986;28;20021;-89
2021/12/06 11:16:16;;;;;;;51.97;23.90;;;;;;;1.43;100.00;101241.53;5047924;28;20363;-86
2021/12/06 11:18:54;;;;;;;42.80;21.50;;;;;;;1.45;100.00;101246.75;5044574;28;20021;-87
2021/12/06 11:21:42;;;;;;;42.10;20.95;;;;;;;1.35;100.00;101251.19;5040783;28;20029;-87
2021/12/06 11:24:19;;;;;;;42.00;21.20;;;;;;;1.29;100.00;101242.47;5028339;28;20032;-88
2021/12/06 11:26:59;;;;;;;43.28;21.08;;;;;;;1.21;100.00;101245.13;5028866;28;20021;-88